Terminal Aerodrome Forecast
Issued by NWS

Home | Current Version | Previous Version | Text Only | Print | Product List | Glossary On
Versions: 1 2 3 4 5 6 7 8 9 10 11 12 13 14 15 16 17 18 19
826
FTUS44 KTSA 172320
TAFFYV
TAF
KFYV 172320Z 1800/1824 18003KT P6SM OVC013
     FM180300 00000KT 4SM BR BKN040
     FM181100 14003KT 4SM BR BKN015=

USA.gov is the U.S. government's official web portal to all federal, state and local government web resources and services.